Aérodrome :
LOGIN :

S'inscrire | Disclaimer

   EN    FR    IT 

 










Légende :    VFR   VFR Marginal   IFR   IFR Intensif   IFR Très Intensif
Visi : 
Plafond : 
>= 8 km
>= 3000ft
5 à 8 km
1000 à 3000 ft
1500m à 5 km
500 à 1000 ft
800 à 1500m
200 à 500 ft
< 800m
< 200 ft
Symboles :   Orages  Brouillard  Fortes neiges  Fortes précipitations  Vent > 20 kt
SIGMETs :   Divers  Orages  Givrage  Turbulence  Onde Orograph.  Cendres Volcan.







- Altitude de l'aérodrome : 31 ft
- Code IATA : INV
- Voir les cartes d'approche


EGPE - Inverness

DERNIER METAR :
  • 191820Z 22005KT 120V260 9999 FEW030 09/05 Q1022

METARs EXPIRÉS :
  • 191750Z 26008KT 9999 FEW030 SCT044 09/05 Q1022
  • 191720Z 17004KT 9999 FEW030 SCT047 08/05 Q1021
  • 191650Z 26008KT 9999 FEW030 10/05 Q1021
  • 191620Z 25010KT 9999 FEW030 11/06 Q1021
  • 191550Z 24012KT 9999 FEW030 11/06 Q1021
  • 191520Z 25015KT 9999 FEW028 11/06 Q1020

TAF TAF EGPE
Valide du 19 à 18h jusqu'au 20 à 03h UTC


191700Z 1918/2003 24009KT 9999 FEW030
ATIS : +44 1667 464 255
Pas de NOTAMs connus pour ce terrain.
2 SIGMETs publiés pour la FIR Scottish (EGPX) :
 
Turbulence forte
EGPX SIGMET 07 VALID 191900/192300 EGRR
EGPX SCOTTISH FIR SEV TURB FCST WI N5500 E00009 - N5500 W00201 - N5600 W00211 - N6022 W00656 - N6020 W00422 - N5652 E00001 - N5500 E00009 FL250/390 MOV E 25KT WKN=
Turbulence forte
EGPX SIGMET 06 VALID 191600/191900 EGRR
EGPX SCOTTISH FIR SEV TURB FCST WI N5500 W00501 - N5719 W00549 - N5951 W00926 - N6018 W00750 - N5818 W00411 - N5500 W00216 - N5500 W00501 FL250/400 MOV ESE 30KT WKN=



MET'MAP, la Météo Aéronautique d'un coup d'oeil ! - Copyright ORBIFLY Décembre 2007 - Disclaimer

ORBIFLY MET'MAP TEAM :

Programmation & Développement : Alexandra Zaïnal
Conception & Développement : Baudouin d'Aumeries
Co-Programmation & Développement : Marc-Olivier Méhu
Soutien technique & logistique : Manuel Goepfert

Contact : metmap@orbifly.com




SOURCES & CREDITS :

   NOAA